sensor_id;sensor_type;location;lat;lon;timestamp;P1;durP1;ratioP1;P2;durP2;ratioP2
15449;SDS011;7826;49.784;9.934;2023-07-31T00:01:23;3.77;;;2.50;;
15449;SDS011;7826;49.784;9.934;2023-07-31T00:03:50;4.53;;;2.77;;
15449;SDS011;7826;49.784;9.934;2023-07-31T00:06:16;3.30;;;2.73;;
15449;SDS011;7826;49.784;9.934;2023-07-31T00:08:43;2.60;;;2.40;;
15449;SDS011;7826;49.784;9.934;2023-07-31T00:11:09;3.97;;;2.40;;
15449;SDS011;7826;49.784;9.934;2023-07-31T00:13:36;2.87;;;2.57;;
15449;SDS011;7826;49.784;9.934;2023-07-31T00:16:02;4.57;;;2.73;;
15449;SDS011;7826;49.784;9.934;2023-07-31T00:18:29;4.37;;;2.70;;
15449;SDS011;7826;49.784;9.934;2023-07-31T00:20:55;4.27;;;2.37;;
15449;SDS011;7826;49.784;9.934;2023-07-31T00:23:22;3.40;;;2.40;;
15449;SDS011;7826;49.784;9.934;2023-07-31T00:25:48;3.27;;;2.27;;
15449;SDS011;7826;49.784;9.934;2023-07-31T00:28:15;3.20;;;2.30;;
15449;SDS011;7826;49.784;9.934;2023-07-31T00:30:41;4.57;;;2.27;;
15449;SDS011;7826;49.784;9.934;2023-07-31T00:33:08;3.10;;;2.50;;
15449;SDS011;7826;49.784;9.934;2023-07-31T00:35:35;2.90;;;2.27;;
15449;SDS011;7826;49.784;9.934;2023-07-31T00:38:01;4.70;;;2.57;;
15449;SDS011;7826;49.784;9.934;2023-07-31T00:40:27;3.50;;;2.53;;
15449;SDS011;7826;49.784;9.934;2023-07-31T00:42:54;4.23;;;2.80;;
15449;SDS011;7826;49.784;9.934;2023-07-31T00:45:21;3.77;;;2.87;;
15449;SDS011;7826;49.784;9.934;2023-07-31T00:47:49;5.77;;;3.00;;
15449;SDS011;7826;49.784;9.934;2023-07-31T00:50:15;4.13;;;2.70;;
15449;SDS011;7826;49.784;9.934;2023-07-31T00:52:42;4.67;;;3.03;;
15449;SDS011;7826;49.784;9.934;2023-07-31T00:55:09;3.73;;;2.70;;
15449;SDS011;7826;49.784;9.934;2023-07-31T00:57:36;2.97;;;2.60;;
15449;SDS011;7826;49.784;9.934;2023-07-31T01:00:03;4.23;;;2.80;;
15449;SDS011;7826;49.784;9.934;2023-07-31T01:02:30;4.57;;;3.03;;
15449;SDS011;7826;49.784;9.934;2023-07-31T01:04:57;5.83;;;2.77;;
15449;SDS011;7826;49.784;9.934;2023-07-31T01:07:28;3.47;;;2.87;;
15449;SDS011;7826;49.784;9.934;2023-07-31T01:10:10;6.00;;;2.90;;
15449;SDS011;7826;49.784;9.934;2023-07-31T01:12:42;4.23;;;3.00;;
15449;SDS011;7826;49.784;9.934;2023-07-31T01:15:11;3.67;;;2.87;;
15449;SDS011;7826;49.784;9.934;2023-07-31T01:17:41;4.27;;;2.73;;
15449;SDS011;7826;49.784;9.934;2023-07-31T01:20:10;4.80;;;2.93;;
15449;SDS011;7826;49.784;9.934;2023-07-31T01:23:08;3.30;;;2.60;;
15449;SDS011;7826;49.784;9.934;2023-07-31T01:26:16;3.20;;;2.70;;
15449;SDS011;7826;49.784;9.934;2023-07-31T01:29:10;5.67;;;3.30;;
15449;SDS011;7826;49.784;9.934;2023-07-31T01:31:46;4.50;;;2.80;;
15449;SDS011;7826;49.784;9.934;2023-07-31T01:34:15;4.43;;;3.20;;
15449;SDS011;7826;49.784;9.934;2023-07-31T01:36:43;4.83;;;3.37;;
15449;SDS011;7826;49.784;9.934;2023-07-31T01:39:10;4.30;;;3.90;;
15449;SDS011;7826;49.784;9.934;2023-07-31T01:41:36;4.50;;;3.93;;
15449;SDS011;7826;49.784;9.934;2023-07-31T01:44:03;8.40;;;4.60;;
15449;SDS011;7826;49.784;9.934;2023-07-31T01:46:30;5.07;;;4.27;;
15449;SDS011;7826;49.784;9.934;2023-07-31T01:48:56;7.23;;;4.30;;
15449;SDS011;7826;49.784;9.934;2023-07-31T01:51:23;5.67;;;4.00;;
15449;SDS011;7826;49.784;9.934;2023-07-31T01:53:49;4.63;;;3.90;;
15449;SDS011;7826;49.784;9.934;2023-07-31T01:56:16;7.53;;;4.30;;
15449;SDS011;7826;49.784;9.934;2023-07-31T01:58:42;6.80;;;4.40;;
15449;SDS011;7826;49.784;9.934;2023-07-31T02:01:09;5.80;;;4.00;;
15449;SDS011;7826;49.784;9.934;2023-07-31T02:03:35;4.03;;;3.63;;
15449;SDS011;7826;49.784;9.934;2023-07-31T02:06:02;5.60;;;3.93;;
15449;SDS011;7826;49.784;9.934;2023-07-31T02:08:28;4.37;;;3.90;;
15449;SDS011;7826;49.784;9.934;2023-07-31T02:10:55;6.77;;;4.07;;
15449;SDS011;7826;49.784;9.934;2023-07-31T02:13:21;7.63;;;3.90;;
15449;SDS011;7826;49.784;9.934;2023-07-31T02:15:48;5.47;;;3.57;;
15449;SDS011;7826;49.784;9.934;2023-07-31T02:18:16;6.23;;;3.90;;
15449;SDS011;7826;49.784;9.934;2023-07-31T02:20:42;7.10;;;3.80;;
15449;SDS011;7826;49.784;9.934;2023-07-31T02:23:12;4.80;;;3.57;;
15449;SDS011;7826;49.784;9.934;2023-07-31T02:25:38;5.07;;;3.50;;
15449;SDS011;7826;49.784;9.934;2023-07-31T02:28:05;5.57;;;3.97;;
15449;SDS011;7826;49.784;9.934;2023-07-31T02:30:31;5.47;;;3.53;;
15449;SDS011;7826;49.784;9.934;2023-07-31T02:32:58;4.80;;;3.57;;
15449;SDS011;7826;49.784;9.934;2023-07-31T02:35:24;5.57;;;3.70;;
15449;SDS011;7826;49.784;9.934;2023-07-31T02:37:51;8.50;;;3.73;;
15449;SDS011;7826;49.784;9.934;2023-07-31T02:40:17;6.23;;;3.57;;
15449;SDS011;7826;49.784;9.934;2023-07-31T02:42:44;7.00;;;3.90;;
15449;SDS011;7826;49.784;9.934;2023-07-31T02:45:10;5.57;;;3.50;;
15449;SDS011;7826;49.784;9.934;2023-07-31T02:47:37;5.97;;;3.47;;
15449;SDS011;7826;49.784;9.934;2023-07-31T02:50:03;6.47;;;3.27;;
15449;SDS011;7826;49.784;9.934;2023-07-31T02:52:30;4.37;;;3.50;;
15449;SDS011;7826;49.784;9.934;2023-07-31T02:54:57;4.60;;;3.57;;
15449;SDS011;7826;49.784;9.934;2023-07-31T02:57:24;5.87;;;3.73;;
15449;SDS011;7826;49.784;9.934;2023-07-31T02:59:50;4.57;;;3.30;;
15449;SDS011;7826;49.784;9.934;2023-07-31T03:02:17;8.37;;;3.80;;
15449;SDS011;7826;49.784;9.934;2023-07-31T03:04:43;7.67;;;3.90;;
15449;SDS011;7826;49.784;9.934;2023-07-31T03:07:10;4.57;;;3.40;;
15449;SDS011;7826;49.784;9.934;2023-07-31T03:09:36;7.20;;;4.10;;
15449;SDS011;7826;49.784;9.934;2023-07-31T03:12:03;4.03;;;3.50;;
15449;SDS011;7826;49.784;9.934;2023-07-31T03:14:29;5.80;;;3.80;;
15449;SDS011;7826;49.784;9.934;2023-07-31T03:16:56;5.10;;;3.40;;
15449;SDS011;7826;49.784;9.934;2023-07-31T03:19:22;4.20;;;3.43;;
15449;SDS011;7826;49.784;9.934;2023-07-31T03:21:49;5.57;;;3.80;;
15449;SDS011;7826;49.784;9.934;2023-07-31T03:24:15;6.00;;;3.57;;
15449;SDS011;7826;49.784;9.934;2023-07-31T03:26:42;4.23;;;3.23;;
15449;SDS011;7826;49.784;9.934;2023-07-31T03:29:08;5.97;;;3.70;;
15449;SDS011;7826;49.784;9.934;2023-07-31T03:31:35;5.23;;;3.47;;
15449;SDS011;7826;49.784;9.934;2023-07-31T03:34:01;4.30;;;3.30;;
15449;SDS011;7826;49.784;9.934;2023-07-31T03:36:28;5.83;;;3.30;;
15449;SDS011;7826;49.784;9.934;2023-07-31T03:38:54;5.73;;;3.57;;
15449;SDS011;7826;49.784;9.934;2023-07-31T03:41:21;6.90;;;3.90;;
15449;SDS011;7826;49.784;9.934;2023-07-31T03:43:48;4.83;;;3.40;;
15449;SDS011;7826;49.784;9.934;2023-07-31T03:46:17;4.57;;;3.53;;
15449;SDS011;7826;49.784;9.934;2023-07-31T03:48:44;6.73;;;3.57;;
15449;SDS011;7826;49.784;9.934;2023-07-31T03:51:10;6.37;;;3.40;;
15449;SDS011;7826;49.784;9.934;2023-07-31T03:53:37;5.33;;;3.17;;
15449;SDS011;7826;49.784;9.934;2023-07-31T03:56:04;4.03;;;3.13;;
15449;SDS011;7826;49.784;9.934;2023-07-31T03:58:30;6.87;;;3.43;;
15449;SDS011;7826;49.784;9.934;2023-07-31T04:00:57;3.80;;;3.23;;
15449;SDS011;7826;49.784;9.934;2023-07-31T04:03:23;4.90;;;3.27;;
15449;SDS011;7826;49.784;9.934;2023-07-31T04:05:50;4.73;;;3.23;;
15449;SDS011;7826;49.784;9.934;2023-07-31T04:08:16;6.10;;;3.50;;
15449;SDS011;7826;49.784;9.934;2023-07-31T04:10:43;5.53;;;3.33;;
15449;SDS011;7826;49.784;9.934;2023-07-31T04:13:09;4.67;;;3.30;;
15449;SDS011;7826;49.784;9.934;2023-07-31T04:15:36;5.27;;;3.60;;
15449;SDS011;7826;49.784;9.934;2023-07-31T04:18:02;4.03;;;3.30;;
15449;SDS011;7826;49.784;9.934;2023-07-31T04:20:30;8.70;;;3.80;;
15449;SDS011;7826;49.784;9.934;2023-07-31T04:22:56;4.83;;;3.20;;
15449;SDS011;7826;49.784;9.934;2023-07-31T04:25:23;6.70;;;3.73;;
15449;SDS011;7826;49.784;9.934;2023-07-31T04:27:49;6.17;;;3.30;;
15449;SDS011;7826;49.784;9.934;2023-07-31T04:30:16;4.93;;;3.20;;
15449;SDS011;7826;49.784;9.934;2023-07-31T04:32:42;5.70;;;3.67;;
15449;SDS011;7826;49.784;9.934;2023-07-31T04:35:09;5.67;;;3.37;;
15449;SDS011;7826;49.784;9.934;2023-07-31T04:37:36;6.37;;;3.73;;
15449;SDS011;7826;49.784;9.934;2023-07-31T04:40:03;5.83;;;3.70;;
15449;SDS011;7826;49.784;9.934;2023-07-31T04:42:30;5.63;;;3.13;;
15449;SDS011;7826;49.784;9.934;2023-07-31T04:44:57;5.23;;;3.70;;
15449;SDS011;7826;49.784;9.934;2023-07-31T04:47:23;5.93;;;3.30;;
15449;SDS011;7826;49.784;9.934;2023-07-31T04:49:50;7.07;;;3.73;;
15449;SDS011;7826;49.784;9.934;2023-07-31T04:52:16;6.00;;;3.57;;
15449;SDS011;7826;49.784;9.934;2023-07-31T04:54:43;4.03;;;2.77;;
15449;SDS011;7826;49.784;9.934;2023-07-31T04:57:09;3.80;;;2.97;;
15449;SDS011;7826;49.784;9.934;2023-07-31T04:59:35;4.70;;;3.23;;
15449;SDS011;7826;49.784;9.934;2023-07-31T05:02:02;4.30;;;3.13;;
15449;SDS011;7826;49.784;9.934;2023-07-31T05:04:29;6.43;;;3.43;;
15449;SDS011;7826;49.784;9.934;2023-07-31T05:06:55;5.83;;;2.80;;
15449;SDS011;7826;49.784;9.934;2023-07-31T05:09:22;8.53;;;3.03;;
15449;SDS011;7826;49.784;9.934;2023-07-31T05:11:48;4.87;;;2.90;;
15449;SDS011;7826;49.784;9.934;2023-07-31T05:14:15;3.90;;;2.93;;
15449;SDS011;7826;49.784;9.934;2023-07-31T05:16:41;6.10;;;2.97;;
15449;SDS011;7826;49.784;9.934;2023-07-31T05:19:08;4.47;;;2.73;;
15449;SDS011;7826;49.784;9.934;2023-07-31T05:21:34;5.10;;;2.97;;
15449;SDS011;7826;49.784;9.934;2023-07-31T05:24:01;4.67;;;2.90;;
15449;SDS011;7826;49.784;9.934;2023-07-31T05:26:27;6.20;;;3.10;;
15449;SDS011;7826;49.784;9.934;2023-07-31T05:28:54;5.23;;;2.60;;
15449;SDS011;7826;49.784;9.934;2023-07-31T05:31:20;4.30;;;3.00;;
15449;SDS011;7826;49.784;9.934;2023-07-31T05:33:48;3.53;;;2.73;;
15449;SDS011;7826;49.784;9.934;2023-07-31T05:36:16;3.70;;;2.80;;
15449;SDS011;7826;49.784;9.934;2023-07-31T05:38:43;4.37;;;3.10;;
15449;SDS011;7826;49.784;9.934;2023-07-31T05:41:13;3.73;;;2.60;;
15449;SDS011;7826;49.784;9.934;2023-07-31T05:43:39;3.07;;;2.73;;
15449;SDS011;7826;49.784;9.934;2023-07-31T05:46:06;3.63;;;2.73;;
15449;SDS011;7826;49.784;9.934;2023-07-31T05:48:33;3.73;;;2.77;;
15449;SDS011;7826;49.784;9.934;2023-07-31T05:51:02;3.83;;;2.83;;
15449;SDS011;7826;49.784;9.934;2023-07-31T05:53:28;6.40;;;3.00;;
15449;SDS011;7826;49.784;9.934;2023-07-31T05:55:55;4.47;;;2.57;;
15449;SDS011;7826;49.784;9.934;2023-07-31T05:58:21;3.93;;;2.73;;
15449;SDS011;7826;49.784;9.934;2023-07-31T06:00:48;3.23;;;2.60;;
15449;SDS011;7826;49.784;9.934;2023-07-31T06:03:14;4.87;;;2.43;;
15449;SDS011;7826;49.784;9.934;2023-07-31T06:05:41;3.93;;;2.80;;
15449;SDS011;7826;49.784;9.934;2023-07-31T06:08:07;3.50;;;2.60;;
15449;SDS011;7826;49.784;9.934;2023-07-31T06:10:34;4.33;;;2.60;;
15449;SDS011;7826;49.784;9.934;2023-07-31T06:13:00;6.03;;;2.90;;
15449;SDS011;7826;49.784;9.934;2023-07-31T06:15:27;6.60;;;3.10;;
15449;SDS011;7826;49.784;9.934;2023-07-31T06:17:53;5.20;;;2.83;;
15449;SDS011;7826;49.784;9.934;2023-07-31T06:20:20;4.27;;;2.70;;
15449;SDS011;7826;49.784;9.934;2023-07-31T06:22:47;3.60;;;2.70;;
15449;SDS011;7826;49.784;9.934;2023-07-31T06:25:13;5.67;;;3.30;;
15449;SDS011;7826;49.784;9.934;2023-07-31T06:27:39;4.07;;;2.77;;
15449;SDS011;7826;49.784;9.934;2023-07-31T06:30:06;4.47;;;2.53;;
15449;SDS011;7826;49.784;9.934;2023-07-31T06:32:33;4.60;;;3.10;;
15449;SDS011;7826;49.784;9.934;2023-07-31T06:35:00;3.67;;;3.03;;
15449;SDS011;7826;49.784;9.934;2023-07-31T06:37:26;4.47;;;2.97;;
15449;SDS011;7826;49.784;9.934;2023-07-31T06:39:52;3.93;;;2.90;;
15449;SDS011;7826;49.784;9.934;2023-07-31T06:42:19;5.00;;;3.10;;
15449;SDS011;7826;49.784;9.934;2023-07-31T06:44:45;5.10;;;3.27;;
15449;SDS011;7826;49.784;9.934;2023-07-31T06:47:12;4.40;;;3.00;;
15449;SDS011;7826;49.784;9.934;2023-07-31T06:49:38;4.07;;;2.90;;
15449;SDS011;7826;49.784;9.934;2023-07-31T06:52:05;4.20;;;2.80;;
15449;SDS011;7826;49.784;9.934;2023-07-31T06:54:32;4.07;;;3.00;;
15449;SDS011;7826;49.784;9.934;2023-07-31T06:56:58;5.33;;;3.07;;
15449;SDS011;7826;49.784;9.934;2023-07-31T06:59:25;5.10;;;3.30;;
15449;SDS011;7826;49.784;9.934;2023-07-31T07:01:51;4.70;;;3.17;;
15449;SDS011;7826;49.784;9.934;2023-07-31T07:04:18;3.47;;;3.10;;
15449;SDS011;7826;49.784;9.934;2023-07-31T07:06:44;6.10;;;3.20;;
15449;SDS011;7826;49.784;9.934;2023-07-31T07:09:11;4.63;;;3.57;;
15449;SDS011;7826;49.784;9.934;2023-07-31T07:11:37;3.90;;;2.97;;
15449;SDS011;7826;49.784;9.934;2023-07-31T07:14:03;7.60;;;3.50;;
15449;SDS011;7826;49.784;9.934;2023-07-31T07:16:30;4.47;;;3.07;;
15449;SDS011;7826;49.784;9.934;2023-07-31T07:18:57;4.13;;;3.27;;
15449;SDS011;7826;49.784;9.934;2023-07-31T07:21:23;5.43;;;2.80;;
15449;SDS011;7826;49.784;9.934;2023-07-31T07:23:50;4.07;;;3.00;;
15449;SDS011;7826;49.784;9.934;2023-07-31T07:26:16;4.20;;;3.10;;
15449;SDS011;7826;49.784;9.934;2023-07-31T07:28:43;5.87;;;3.60;;
15449;SDS011;7826;49.784;9.934;2023-07-31T07:31:09;5.37;;;3.40;;
15449;SDS011;7826;49.784;9.934;2023-07-31T07:33:36;5.13;;;4.00;;
15449;SDS011;7826;49.784;9.934;2023-07-31T07:36:02;3.97;;;3.10;;
15449;SDS011;7826;49.784;9.934;2023-07-31T07:38:29;4.17;;;3.03;;
15449;SDS011;7826;49.784;9.934;2023-07-31T07:40:56;3.90;;;2.80;;
15449;SDS011;7826;49.784;9.934;2023-07-31T07:43:22;5.37;;;3.03;;
15449;SDS011;7826;49.784;9.934;2023-07-31T07:45:49;4.47;;;3.13;;
15449;SDS011;7826;49.784;9.934;2023-07-31T07:48:15;4.83;;;3.30;;
15449;SDS011;7826;49.784;9.934;2023-07-31T07:50:43;3.83;;;3.47;;
15449;SDS011;7826;49.784;9.934;2023-07-31T07:53:09;4.53;;;3.03;;
15449;SDS011;7826;49.784;9.934;2023-07-31T07:55:36;6.43;;;3.37;;
15449;SDS011;7826;49.784;9.934;2023-07-31T07:58:02;3.97;;;3.00;;
15449;SDS011;7826;49.784;9.934;2023-07-31T08:00:29;4.87;;;3.47;;
15449;SDS011;7826;49.784;9.934;2023-07-31T08:02:55;6.07;;;3.17;;
15449;SDS011;7826;49.784;9.934;2023-07-31T08:05:24;2.50;;;2.30;;
15449;SDS011;7826;49.784;9.934;2023-07-31T08:07:51;5.27;;;3.00;;
15449;SDS011;7826;49.784;9.934;2023-07-31T08:10:17;4.07;;;2.50;;
15449;SDS011;7826;49.784;9.934;2023-07-31T08:12:44;5.27;;;3.30;;
15449;SDS011;7826;49.784;9.934;2023-07-31T08:15:10;4.13;;;2.87;;
15449;SDS011;7826;49.784;9.934;2023-07-31T08:17:37;3.80;;;2.93;;
15449;SDS011;7826;49.784;9.934;2023-07-31T08:20:03;3.20;;;2.80;;
15449;SDS011;7826;49.784;9.934;2023-07-31T08:22:31;2.60;;;1.97;;
15449;SDS011;7826;49.784;9.934;2023-07-31T08:24:57;3.37;;;2.57;;
15449;SDS011;7826;49.784;9.934;2023-07-31T08:27:24;2.23;;;2.03;;
15449;SDS011;7826;49.784;9.934;2023-07-31T08:29:51;2.83;;;1.80;;
15449;SDS011;7826;49.784;9.934;2023-07-31T08:32:18;1.90;;;1.77;;
15449;SDS011;7826;49.784;9.934;2023-07-31T08:34:45;3.03;;;2.43;;
15449;SDS011;7826;49.784;9.934;2023-07-31T08:37:11;2.20;;;2.00;;
15449;SDS011;7826;49.784;9.934;2023-07-31T08:39:38;2.50;;;1.40;;
15449;SDS011;7826;49.784;9.934;2023-07-31T08:42:07;2.20;;;1.70;;
15449;SDS011;7826;49.784;9.934;2023-07-31T08:44:35;1.90;;;1.70;;
15449;SDS011;7826;49.784;9.934;2023-07-31T08:47:03;2.90;;;1.50;;
15449;SDS011;7826;49.784;9.934;2023-07-31T08:49:30;1.67;;;1.40;;
15449;SDS011;7826;49.784;9.934;2023-07-31T08:51:57;1.50;;;1.40;;
15449;SDS011;7826;49.784;9.934;2023-07-31T08:54:24;1.73;;;1.40;;
15449;SDS011;7826;49.784;9.934;2023-07-31T08:56:55;1.70;;;1.60;;
15449;SDS011;7826;49.784;9.934;2023-07-31T08:59:23;1.37;;;1.20;;
15449;SDS011;7826;49.784;9.934;2023-07-31T09:01:53;1.47;;;1.37;;
15449;SDS011;7826;49.784;9.934;2023-07-31T09:04:21;1.83;;;1.60;;
15449;SDS011;7826;49.784;9.934;2023-07-31T09:06:49;1.73;;;1.33;;
15449;SDS011;7826;49.784;9.934;2023-07-31T09:09:20;1.80;;;1.70;;
15449;SDS011;7826;49.784;9.934;2023-07-31T09:11:47;1.60;;;1.50;;
15449;SDS011;7826;49.784;9.934;2023-07-31T09:14:15;1.60;;;1.47;;
15449;SDS011;7826;49.784;9.934;2023-07-31T09:16:56;2.13;;;1.93;;
15449;SDS011;7826;49.784;9.934;2023-07-31T09:19:25;2.10;;;1.90;;
15449;SDS011;7826;49.784;9.934;2023-07-31T09:21:56;1.80;;;1.70;;
15449;SDS011;7826;49.784;9.934;2023-07-31T09:24:26;2.30;;;2.10;;
15449;SDS011;7826;49.784;9.934;2023-07-31T09:26:57;3.17;;;2.20;;
15449;SDS011;7826;49.784;9.934;2023-07-31T09:29:25;4.17;;;2.93;;
15449;SDS011;7826;49.784;9.934;2023-07-31T09:31:53;3.60;;;3.30;;
15449;SDS011;7826;49.784;9.934;2023-07-31T09:34:20;4.47;;;3.30;;
15449;SDS011;7826;49.784;9.934;2023-07-31T09:37:04;4.23;;;3.40;;
15449;SDS011;7826;49.784;9.934;2023-07-31T09:39:31;4.97;;;4.17;;
15449;SDS011;7826;49.784;9.934;2023-07-31T09:41:57;4.30;;;3.90;;
15449;SDS011;7826;49.784;9.934;2023-07-31T09:44:37;6.83;;;4.00;;
15449;SDS011;7826;49.784;9.934;2023-07-31T09:47:07;4.33;;;3.80;;
15449;SDS011;7826;49.784;9.934;2023-07-31T09:49:47;4.70;;;4.30;;
15449;SDS011;7826;49.784;9.934;2023-07-31T09:52:14;5.20;;;3.97;;
15449;SDS011;7826;49.784;9.934;2023-07-31T09:54:42;5.80;;;4.57;;
15449;SDS011;7826;49.784;9.934;2023-07-31T09:57:09;5.77;;;4.50;;
15449;SDS011;7826;49.784;9.934;2023-07-31T09:59:37;5.87;;;4.20;;
15449;SDS011;7826;49.784;9.934;2023-07-31T10:02:04;5.40;;;4.33;;
15449;SDS011;7826;49.784;9.934;2023-07-31T10:04:34;5.83;;;4.80;;
15449;SDS011;7826;49.784;9.934;2023-07-31T10:07:01;7.07;;;4.40;;
15449;SDS011;7826;49.784;9.934;2023-07-31T10:09:29;5.93;;;4.40;;
15449;SDS011;7826;49.784;9.934;2023-07-31T10:12:01;6.37;;;5.20;;
15449;SDS011;7826;49.784;9.934;2023-07-31T10:14:35;6.03;;;4.93;;
15449;SDS011;7826;49.784;9.934;2023-07-31T10:17:02;5.80;;;4.67;;
15449;SDS011;7826;49.784;9.934;2023-07-31T10:19:30;6.43;;;4.30;;
15449;SDS011;7826;49.784;9.934;2023-07-31T10:21:59;5.97;;;4.40;;
15449;SDS011;7826;49.784;9.934;2023-07-31T10:24:26;7.10;;;4.30;;
15449;SDS011;7826;49.784;9.934;2023-07-31T10:26:54;7.53;;;4.23;;
15449;SDS011;7826;49.784;9.934;2023-07-31T10:29:26;6.17;;;4.10;;
15449;SDS011;7826;49.784;9.934;2023-07-31T10:31:56;5.97;;;3.77;;
15449;SDS011;7826;49.784;9.934;2023-07-31T10:34:25;5.10;;;3.63;;
15449;SDS011;7826;49.784;9.934;2023-07-31T10:37:19;4.87;;;4.07;;
15449;SDS011;7826;49.784;9.934;2023-07-31T10:39:55;5.87;;;3.77;;
15449;SDS011;7826;49.784;9.934;2023-07-31T10:44:58;5.30;;;3.87;;
15449;SDS011;7826;49.784;9.934;2023-07-31T10:47:25;5.60;;;3.57;;
15449;SDS011;7826;49.784;9.934;2023-07-31T10:49:52;4.40;;;3.60;;
15449;SDS011;7826;49.784;9.934;2023-07-31T10:52:36;4.97;;;3.17;;
15449;SDS011;7826;49.784;9.934;2023-07-31T10:57:48;5.63;;;3.80;;
15449;SDS011;7826;49.784;9.934;2023-07-31T11:00:24;6.17;;;3.77;;
15449;SDS011;7826;49.784;9.934;2023-07-31T11:02:58;4.57;;;2.80;;
15449;SDS011;7826;49.784;9.934;2023-07-31T11:13:32;5.67;;;3.37;;
15449;SDS011;7826;49.784;9.934;2023-07-31T11:16:09;4.00;;;3.53;;
15449;SDS011;7826;49.784;9.934;2023-07-31T11:18:38;4.60;;;3.27;;
15449;SDS011;7826;49.784;9.934;2023-07-31T11:21:07;4.20;;;3.17;;
15449;SDS011;7826;49.784;9.934;2023-07-31T11:23:36;4.87;;;3.03;;
15449;SDS011;7826;49.784;9.934;2023-07-31T11:26:04;7.23;;;3.60;;
15449;SDS011;7826;49.784;9.934;2023-07-31T11:28:33;4.97;;;3.20;;
15449;SDS011;7826;49.784;9.934;2023-07-31T11:31:04;4.60;;;3.17;;
15449;SDS011;7826;49.784;9.934;2023-07-31T11:33:31;4.27;;;3.63;;
15449;SDS011;7826;49.784;9.934;2023-07-31T11:35:57;3.60;;;3.10;;
15449;SDS011;7826;49.784;9.934;2023-07-31T11:38:25;4.23;;;3.20;;
15449;SDS011;7826;49.784;9.934;2023-07-31T11:40:54;6.10;;;3.63;;
15449;SDS011;7826;49.784;9.934;2023-07-31T11:43:24;3.50;;;3.20;;
15449;SDS011;7826;49.784;9.934;2023-07-31T11:45:53;4.07;;;3.50;;
15449;SDS011;7826;49.784;9.934;2023-07-31T11:48:22;5.90;;;3.40;;
15449;SDS011;7826;49.784;9.934;2023-07-31T11:50:53;5.27;;;3.30;;
15449;SDS011;7826;49.784;9.934;2023-07-31T11:53:23;6.73;;;3.33;;
15449;SDS011;7826;49.784;9.934;2023-07-31T11:55:53;4.10;;;2.90;;
15449;SDS011;7826;49.784;9.934;2023-07-31T11:58:21;4.77;;;3.43;;
15449;SDS011;7826;49.784;9.934;2023-07-31T12:00:48;4.87;;;3.40;;
15449;SDS011;7826;49.784;9.934;2023-07-31T12:03:15;7.07;;;3.37;;
15449;SDS011;7826;49.784;9.934;2023-07-31T12:05:42;6.10;;;3.17;;
15449;SDS011;7826;49.784;9.934;2023-07-31T12:08:09;3.70;;;3.30;;
15449;SDS011;7826;49.784;9.934;2023-07-31T12:10:38;3.97;;;3.20;;
15449;SDS011;7826;49.784;9.934;2023-07-31T12:13:08;3.87;;;3.20;;
15449;SDS011;7826;49.784;9.934;2023-07-31T12:15:45;3.30;;;2.80;;
15449;SDS011;7826;49.784;9.934;2023-07-31T12:18:15;4.57;;;3.37;;
15449;SDS011;7826;49.784;9.934;2023-07-31T12:20:49;4.80;;;2.90;;
15449;SDS011;7826;49.784;9.934;2023-07-31T12:23:31;4.80;;;3.03;;
15449;SDS011;7826;49.784;9.934;2023-07-31T12:26:05;3.17;;;2.60;;
15449;SDS011;7826;49.784;9.934;2023-07-31T12:31:04;3.10;;;2.80;;
15449;SDS011;7826;49.784;9.934;2023-07-31T12:33:32;4.00;;;2.60;;
15449;SDS011;7826;49.784;9.934;2023-07-31T12:36:02;2.53;;;2.33;;
15449;SDS011;7826;49.784;9.934;2023-07-31T12:38:33;3.37;;;2.33;;
15449;SDS011;7826;49.784;9.934;2023-07-31T12:41:00;2.53;;;2.33;;
15449;SDS011;7826;49.784;9.934;2023-07-31T12:43:26;3.37;;;2.47;;
15449;SDS011;7826;49.784;9.934;2023-07-31T12:45:54;2.60;;;2.40;;
15449;SDS011;7826;49.784;9.934;2023-07-31T12:48:22;2.60;;;2.37;;
15449;SDS011;7826;49.784;9.934;2023-07-31T12:50:48;2.70;;;2.50;;
15449;SDS011;7826;49.784;9.934;2023-07-31T12:53:15;3.83;;;2.70;;
15449;SDS011;7826;49.784;9.934;2023-07-31T12:55:42;5.73;;;3.00;;
15449;SDS011;7826;49.784;9.934;2023-07-31T12:58:09;3.20;;;2.70;;
15449;SDS011;7826;49.784;9.934;2023-07-31T13:00:35;4.43;;;2.63;;
15449;SDS011;7826;49.784;9.934;2023-07-31T13:03:02;3.90;;;3.07;;
15449;SDS011;7826;49.784;9.934;2023-07-31T13:05:29;2.93;;;2.63;;
15449;SDS011;7826;49.784;9.934;2023-07-31T13:07:55;4.77;;;2.70;;
15449;SDS011;7826;49.784;9.934;2023-07-31T13:10:23;3.20;;;2.90;;
15449;SDS011;7826;49.784;9.934;2023-07-31T13:12:50;3.67;;;2.90;;
15449;SDS011;7826;49.784;9.934;2023-07-31T13:15:16;4.63;;;2.73;;
15449;SDS011;7826;49.784;9.934;2023-07-31T13:17:43;3.80;;;2.97;;
15449;SDS011;7826;49.784;9.934;2023-07-31T13:20:09;4.47;;;3.13;;
15449;SDS011;7826;49.784;9.934;2023-07-31T13:22:36;5.83;;;3.20;;
15449;SDS011;7826;49.784;9.934;2023-07-31T13:25:03;4.10;;;3.13;;
15449;SDS011;7826;49.784;9.934;2023-07-31T13:27:30;3.47;;;3.03;;
15449;SDS011;7826;49.784;9.934;2023-07-31T13:29:57;4.77;;;2.90;;
15449;SDS011;7826;49.784;9.934;2023-07-31T13:32:23;3.97;;;3.07;;
15449;SDS011;7826;49.784;9.934;2023-07-31T13:34:51;4.17;;;2.90;;
15449;SDS011;7826;49.784;9.934;2023-07-31T13:37:17;5.37;;;3.40;;
15449;SDS011;7826;49.784;9.934;2023-07-31T13:39:44;5.37;;;2.80;;
15449;SDS011;7826;49.784;9.934;2023-07-31T13:42:11;4.40;;;2.90;;
15449;SDS011;7826;49.784;9.934;2023-07-31T13:44:38;4.40;;;3.00;;
15449;SDS011;7826;49.784;9.934;2023-07-31T13:47:05;3.87;;;3.30;;
15449;SDS011;7826;49.784;9.934;2023-07-31T13:49:32;3.50;;;3.20;;
15449;SDS011;7826;49.784;9.934;2023-07-31T13:52:03;4.13;;;3.07;;
15449;SDS011;7826;49.784;9.934;2023-07-31T13:54:30;3.20;;;2.73;;
15449;SDS011;7826;49.784;9.934;2023-07-31T13:56:59;5.20;;;3.10;;
15449;SDS011;7826;49.784;9.934;2023-07-31T13:59:30;6.27;;;3.30;;
15449;SDS011;7826;49.784;9.934;2023-07-31T14:01:56;3.70;;;3.10;;
15449;SDS011;7826;49.784;9.934;2023-07-31T14:04:23;3.40;;;3.10;;
15449;SDS011;7826;49.784;9.934;2023-07-31T14:06:49;4.53;;;3.00;;
15449;SDS011;7826;49.784;9.934;2023-07-31T14:09:17;4.30;;;3.23;;
15449;SDS011;7826;49.784;9.934;2023-07-31T14:11:44;4.83;;;3.30;;
15449;SDS011;7826;49.784;9.934;2023-07-31T14:14:10;3.77;;;2.80;;
15449;SDS011;7826;49.784;9.934;2023-07-31T14:16:38;3.27;;;2.50;;
15449;SDS011;7826;49.784;9.934;2023-07-31T14:19:04;3.87;;;2.77;;
15449;SDS011;7826;49.784;9.934;2023-07-31T14:21:31;3.60;;;2.70;;
15449;SDS011;7826;49.784;9.934;2023-07-31T14:23:57;3.23;;;2.60;;
15449;SDS011;7826;49.784;9.934;2023-07-31T14:26:24;4.17;;;2.77;;
15449;SDS011;7826;49.784;9.934;2023-07-31T14:28:50;3.40;;;2.50;;
15449;SDS011;7826;49.784;9.934;2023-07-31T14:31:20;4.83;;;2.90;;
15449;SDS011;7826;49.784;9.934;2023-07-31T14:33:46;3.23;;;2.63;;
15449;SDS011;7826;49.784;9.934;2023-07-31T14:36:13;3.80;;;2.83;;
15449;SDS011;7826;49.784;9.934;2023-07-31T14:38:39;6.40;;;2.90;;
15449;SDS011;7826;49.784;9.934;2023-07-31T14:41:06;3.10;;;2.80;;
15449;SDS011;7826;49.784;9.934;2023-07-31T14:43:32;4.33;;;3.00;;
15449;SDS011;7826;49.784;9.934;2023-07-31T14:45:59;2.97;;;2.67;;
15449;SDS011;7826;49.784;9.934;2023-07-31T14:48:26;4.00;;;3.10;;
15449;SDS011;7826;49.784;9.934;2023-07-31T14:50:53;4.10;;;2.80;;
15449;SDS011;7826;49.784;9.934;2023-07-31T14:53:20;3.77;;;3.03;;
15449;SDS011;7826;49.784;9.934;2023-07-31T14:55:47;4.67;;;2.83;;
15449;SDS011;7826;49.784;9.934;2023-07-31T14:58:14;3.80;;;3.10;;
15449;SDS011;7826;49.784;9.934;2023-07-31T15:00:40;3.70;;;3.10;;
15449;SDS011;7826;49.784;9.934;2023-07-31T15:03:07;4.77;;;3.07;;
15449;SDS011;7826;49.784;9.934;2023-07-31T15:05:33;4.33;;;3.10;;
15449;SDS011;7826;49.784;9.934;2023-07-31T15:08:00;5.73;;;3.00;;
15449;SDS011;7826;49.784;9.934;2023-07-31T15:10:26;4.13;;;3.43;;
15449;SDS011;7826;49.784;9.934;2023-07-31T15:12:53;3.83;;;3.20;;
15449;SDS011;7826;49.784;9.934;2023-07-31T15:15:19;3.83;;;3.03;;
15449;SDS011;7826;49.784;9.934;2023-07-31T15:17:46;3.73;;;3.20;;
15449;SDS011;7826;49.784;9.934;2023-07-31T15:20:13;4.37;;;3.43;;